Kinsuimaru — JD2401 — position and weather

sailwx.info

Track history (hours):
 
Tides and Currents Weather Stations Pressure Air Temp Water Temp Dewpoint Dewpoint Depression Visibility Wind Speed Wind Dir Waves Ship Positions

Kinsuimaru

Last reported at 2018-Jan-18 16:55 UTC. Time now 2018-Jan-19 21:24 UTC.
Position N 34°58' E 140°09'.

Length 105 m; draft 6.4 m.

Type: Tanker. MMSI: 431000175.

Date/timePositionNaut miles runAvg speedWind from/ knotsBaromVisibWave heightAir tempDewpointWater temp
2018-Jan-18 16:55N 34°58' E 140°09'1812.2
2018-Jan-18 15:25N 34°53' E 139°48'512.6
2018-Jan-18 15:00N 34°57' E 139°44'713.1
2018-Jan-18 14:30N 35°03' E 139°44'713.2
2018-Jan-18 14:00N 35°10' E 139°45'612.8
2018-Jan-18 13:30N 35°16' E 139°46'612.2
2018-Jan-18 13:00N 35°21' E 139°42'612.8
2018-Jan-18 12:31N 35°27' E 139°47'713.8
2018-Jan-18 12:00N 35°30' E 139°54'612.8
2018-Jan-18 11:30N 35°31' E 140°02'1 0.1
2018-Jan-18 06:47N 35°31' E 140°03'0 1.0
2018-Jan-18 06:30N 35°31' E 140°02'1 2.6
2018-Jan-18 06:00N 35°32' E 140°01'2 3.2
2018-Jan-18 05:30N 35°31' E 139°59'713.6
2018-Jan-18 05:00N 35°28' E 139°52'713.4
2018-Jan-18 04:31N 35°23' E 139°46'612.0
2018-Jan-18 04:00N 35°17' E 139°45'611.8
2018-Jan-18 03:31N 35°12' E 139°47'713.9
2018-Jan-18 03:00N 35°05' E 139°45'713.3
2018-Jan-18 02:30N 34°58' E 139°43'713.9
2018-Jan-18 02:00N 34°53' E 139°49'812.7
2018-Jan-18 01:24N 34°53' E 139°58'511.8
2018-Jan-18 00:59N 34°55' E 140°04'  
Track history (hours):
 
Tides and Currents Weather Stations Pressure Air Temp Water Temp Dewpoint Dewpoint Depression Visibility Wind Speed Wind Dir Waves Ship Positions

Kinsuimaru

Last reported at 2018-Jan-18 16:55 UTC. Time now 2018-Jan-19 21:24 UTC.
Position N 34°58' E 140°09'.

Length 105 m; draft 6.4 m.

Type: Tanker. MMSI: 431000175.

Date/timePositionNaut miles runAvg speedWind from/ knotsBaromVisibWave heightAir tempDewpointWater temp
2018-Jan-18 16:55N 34°58' E 140°09'1812.2
2018-Jan-18 15:25N 34°53' E 139°48'512.6
2018-Jan-18 15:00N 34°57' E 139°44'713.1
2018-Jan-18 14:30N 35°03' E 139°44'713.2
2018-Jan-18 14:00N 35°10' E 139°45'612.8
2018-Jan-18 13:30N 35°16' E 139°46'612.2
2018-Jan-18 13:00N 35°21' E 139°42'612.8
2018-Jan-18 12:31N 35°27' E 139°47'713.8
2018-Jan-18 12:00N 35°30' E 139°54'612.8
2018-Jan-18 11:30N 35°31' E 140°02'1 0.1
2018-Jan-18 06:47N 35°31' E 140°03'0 1.0
2018-Jan-18 06:30N 35°31' E 140°02'1 2.6
2018-Jan-18 06:00N 35°32' E 140°01'2 3.2
2018-Jan-18 05:30N 35°31' E 139°59'713.6
2018-Jan-18 05:00N 35°28' E 139°52'713.4
2018-Jan-18 04:31N 35°23' E 139°46'612.0
2018-Jan-18 04:00N 35°17' E 139°45'611.8
2018-Jan-18 03:31N 35°12' E 139°47'713.9
2018-Jan-18 03:00N 35°05' E 139°45'713.3
2018-Jan-18 02:30N 34°58' E 139°43'713.9
2018-Jan-18 02:00N 34°53' E 139°49'812.7
2018-Jan-18 01:24N 34°53' E 139°58'511.8
2018-Jan-18 00:59N 34°55' E 140°04'  

Dump ship's entire track history